Time;durP1;ratioP1;P1;durP2;ratioP2;P2;SDS_P1;SDS_P2;PMS_P1;PMS_P2;Temp;Humidity;BMP_temperature;BMP_pressure;BME280_temperature;BME280_humidity;BME280_pressure;Samples;Min_cycle;Max_cycle;Signal;HPM_P1;HPM_P2
2023/11/15 00:00:25;;;;;;;0.00;0.00;;;10.50;99.90;;;;;;4989933;28;20265;-58
2023/11/15 00:02:52;;;;;;;0.57;0.03;;;10.50;99.90;;;;;;4980195;28;20208;-58
2023/11/15 00:05:19;;;;;;;0.00;0.00;;;10.40;99.90;;;;;;4984911;28;20249;-58
2023/11/15 00:07:46;;;;;;;0.10;0.00;;;10.40;99.90;;;;;;4992199;28;20236;-58
2023/11/15 00:10:14;;;;;;;0.00;0.00;;;10.30;99.90;;;;;;4992737;28;20282;-58
2023/11/15 00:12:41;;;;;;;0.00;0.00;;;10.30;99.90;;;;;;4983843;28;20213;-58
2023/11/15 00:15:08;;;;;;;0.00;0.00;;;10.30;99.90;;;;;;4980627;28;20656;-58
2023/11/15 00:17:37;;;;;;;0.10;0.00;;;10.20;99.90;;;;;;4984602;28;20202;-58
2023/11/15 00:20:05;;;;;;;0.50;0.00;;;10.20;99.90;;;;;;4992539;28;20234;-58
2023/11/15 00:22:32;;;;;;;0.13;0.13;;;10.20;99.90;;;;;;4986637;28;20215;-58
2023/11/15 00:24:59;;;;;;;0.30;0.10;;;10.20;99.90;;;;;;4981648;28;20226;-58
2023/11/15 00:27:27;;;;;;;0.20;0.03;;;10.20;99.90;;;;;;4992852;28;20241;-58
2023/11/15 00:29:54;;;;;;;0.03;0.00;;;10.20;99.90;;;;;;4986487;28;20227;-58
2023/11/15 00:32:21;;;;;;;0.00;0.00;;;10.10;99.90;;;;;;4980351;28;20231;-58
2023/11/15 00:34:49;;;;;;;0.00;0.00;;;10.10;99.90;;;;;;4980212;28;20208;-58
2023/11/15 00:37:17;;;;;;;0.00;0.00;;;10.10;99.90;;;;;;4980554;28;20231;-58
2023/11/15 00:39:44;;;;;;;0.70;0.00;;;10.10;99.90;;;;;;4987865;28;20216;-58
2023/11/15 00:42:12;;;;;;;0.00;0.00;;;10.20;99.90;;;;;;4992564;28;20697;-58
2023/11/15 00:44:39;;;;;;;1.47;0.23;;;10.20;99.90;;;;;;4973503;28;20256;-58
2023/11/15 00:47:06;;;;;;;1.33;0.27;;;10.30;99.90;;;;;;4982615;28;20211;-58
2023/11/15 00:49:34;;;;;;;0.97;0.10;;;10.30;99.90;;;;;;4992108;28;20264;-58
2023/11/15 00:52:02;;;;;;;1.17;0.10;;;10.30;99.90;;;;;;4992309;28;20209;-58
2023/11/15 00:54:29;;;;;;;0.10;0.10;;;10.30;99.90;;;;;;4992156;28;20678;-58
2023/11/15 00:56:56;;;;;;;0.13;0.00;;;10.30;99.90;;;;;;4986548;28;20224;-58
2023/11/15 00:59:26;;;;;;;0.60;0.00;;;10.30;99.90;;;;;;4965406;28;20217;-58
2023/11/15 01:01:59;;;;;;;1.03;0.10;;;10.30;99.90;;;;;;4988991;28;20578;-58
2023/11/15 01:04:26;;;;;;;0.20;0.07;;;10.20;99.90;;;;;;4992302;28;20214;-58
2023/11/15 01:06:53;;;;;;;0.60;0.17;;;10.20;99.90;;;;;;4991691;28;20210;-58
2023/11/15 01:09:23;;;;;;;0.27;0.10;;;10.10;99.90;;;;;;4985754;28;20231;-58
2023/11/15 01:11:50;;;;;;;0.83;0.10;;;10.10;99.90;;;;;;4968310;28;20559;-58
2023/11/15 01:14:18;;;;;;;0.30;0.17;;;10.00;99.90;;;;;;4965722;28;20211;-58
2023/11/15 01:16:45;;;;;;;0.30;0.20;;;9.90;99.90;;;;;;4979034;28;20203;-58
2023/11/15 01:19:12;;;;;;;0.20;0.10;;;10.00;99.90;;;;;;4990677;28;20237;-58
2023/11/15 01:21:39;;;;;;;0.10;0.10;;;10.00;99.90;;;;;;4982861;28;20263;-58
2023/11/15 01:24:07;;;;;;;0.00;0.00;;;10.00;99.90;;;;;;4990016;28;20215;-58
2023/11/15 01:26:36;;;;;;;0.60;0.10;;;10.10;99.90;;;;;;4983542;28;20298;-58
2023/11/15 01:29:03;;;;;;;0.47;0.20;;;10.10;99.90;;;;;;4989392;28;20251;-58
2023/11/15 01:31:33;;;;;;;1.27;0.20;;;10.10;99.90;;;;;;4985046;28;20557;-58
2023/11/15 01:34:00;;;;;;;0.33;0.13;;;10.00;99.90;;;;;;4989113;28;20609;-58
2023/11/15 01:36:28;;;;;;;0.43;0.37;;;10.00;99.90;;;;;;4992770;23;20234;-56
2023/11/15 01:38:55;;;;;;;0.10;0.00;;;10.20;99.90;;;;;;4971658;28;20285;-57
2023/11/15 01:41:23;;;;;;;0.10;0.10;;;10.10;99.90;;;;;;4970626;28;20203;-57
2023/11/15 01:43:52;;;;;;;0.30;0.10;;;10.10;99.90;;;;;;4971198;28;20260;-57
2023/11/15 01:46:19;;;;;;;0.33;0.10;;;10.00;99.90;;;;;;4960224;28;20309;-57
2023/11/15 01:48:47;;;;;;;0.17;0.07;;;10.00;99.90;;;;;;4952806;29;20216;-57
2023/11/15 01:51:15;;;;;;;1.07;0.20;;;9.80;99.90;;;;;;4952650;28;20268;-56
2023/11/15 01:53:43;;;;;;;1.03;0.10;;;9.90;99.90;;;;;;4962052;28;20204;-56
2023/11/15 01:56:10;;;;;;;0.20;0.20;;;9.80;99.90;;;;;;4973432;28;20256;-58
2023/11/15 01:58:38;;;;;;;2.60;0.20;;;9.70;99.90;;;;;;4971324;28;20207;-57
2023/11/15 02:01:08;;;;;;;0.40;0.10;;;9.60;99.90;;;;;;4965833;28;20642;-58
2023/11/15 02:03:35;;;;;;;0.10;0.10;;;9.60;99.90;;;;;;4956016;29;20216;-58
2023/11/15 02:06:02;;;;;;;0.10;0.07;;;9.50;99.90;;;;;;4955481;29;20231;-57
2023/11/15 02:08:29;;;;;;;0.10;0.00;;;9.60;99.90;;;;;;4966351;28;20755;-57
2023/11/15 02:10:56;;;;;;;0.60;0.57;;;9.70;99.90;;;;;;4981540;28;20314;-57
2023/11/15 02:13:25;;;;;;;0.50;0.00;;;9.60;99.90;;;;;;4966803;28;20559;-57
2023/11/15 02:15:55;;;;;;;0.37;0.07;;;9.70;99.90;;;;;;4973712;28;20277;-57
2023/11/15 02:18:24;;;;;;;0.10;0.10;;;9.60;99.90;;;;;;4966307;28;20254;-57
2023/11/15 02:20:51;;;;;;;0.30;0.10;;;9.50;99.90;;;;;;4973871;28;20733;-57
2023/11/15 02:23:21;;;;;;;1.90;0.00;;;9.50;99.90;;;;;;4980908;28;20222;-57
2023/11/15 02:25:51;;;;;;;0.30;0.23;;;9.50;99.90;;;;;;4959448;28;20251;-58
2023/11/15 02:28:18;;;;;;;0.70;0.00;;;9.50;99.90;;;;;;4955784;28;20711;-58
2023/11/15 02:30:45;;;;;;;1.50;0.33;;;9.40;99.90;;;;;;4961210;28;20309;-58
2023/11/15 02:33:13;;;;;;;0.17;0.00;;;9.40;99.90;;;;;;4971253;28;20200;-58
2023/11/15 02:35:40;;;;;;;0.00;0.00;;;9.40;99.90;;;;;;4974361;28;20335;-58
2023/11/15 02:38:07;;;;;;;3.30;0.10;;;9.40;99.90;;;;;;4974926;28;20269;-57
2023/11/15 02:40:34;;;;;;;0.10;0.10;;;9.50;99.90;;;;;;4955635;29;20268;-57
2023/11/15 02:43:05;;;;;;;1.50;0.27;;;9.60;99.90;;;;;;4965392;28;20259;-58
2023/11/15 02:45:31;;;;;;;0.77;0.10;;;9.70;99.90;;;;;;4973691;28;20304;-57
2023/11/15 02:47:58;;;;;;;4.53;0.00;;;9.80;99.90;;;;;;4969226;28;20202;-57
2023/11/15 02:50:29;;;;;;;0.20;0.10;;;9.70;99.90;;;;;;4955295;29;20260;-57
2023/11/15 02:52:56;;;;;;;2.83;0.10;;;9.50;99.90;;;;;;4970899;28;20299;-57
2023/11/15 02:55:23;;;;;;;0.00;0.00;;;9.70;99.90;;;;;;4972191;28;20266;-57
2023/11/15 02:57:50;;;;;;;0.10;0.10;;;9.70;99.90;;;;;;4973336;28;20265;-57
2023/11/15 03:00:19;;;;;;;0.57;0.00;;;9.50;99.90;;;;;;4979019;28;20199;-57
2023/11/15 03:02:47;;;;;;;0.30;0.00;;;9.50;99.90;;;;;;4966319;28;20253;-57
2023/11/15 03:05:14;;;;;;;0.87;0.00;;;9.40;99.90;;;;;;4972838;28;20242;-57
2023/11/15 03:07:41;;;;;;;1.40;0.00;;;9.30;99.90;;;;;;4974412;28;20203;-58
2023/11/15 03:10:09;;;;;;;0.73;0.00;;;9.20;99.90;;;;;;4962601;28;20215;-57
2023/11/15 03:12:36;;;;;;;0.20;0.00;;;9.20;99.90;;;;;;4969607;28;20295;-58
2023/11/15 03:15:05;;;;;;;0.10;0.00;;;9.20;99.90;;;;;;4972771;28;20563;-57
2023/11/15 03:17:33;;;;;;;0.43;0.10;;;7.80;99.90;;;;;;4968674;28;20659;-57
2023/11/15 03:20:00;;;;;;;0.00;0.00;;;9.20;99.90;;;;;;4966837;28;20250;-57
2023/11/15 03:22:27;;;;;;;0.33;0.10;;;9.20;99.90;;;;;;4972969;28;20201;-57
2023/11/15 03:24:54;;;;;;;0.30;0.10;;;9.30;99.90;;;;;;4965632;28;20754;-57
2023/11/15 03:27:21;;;;;;;0.00;0.00;;;9.50;99.90;;;;;;4973980;28;20203;-57
2023/11/15 03:29:48;;;;;;;0.77;0.10;;;9.50;99.90;;;;;;4976880;28;20265;-57
2023/11/15 03:32:15;;;;;;;1.53;0.10;;;9.40;99.90;;;;;;4973062;28;20574;-57
2023/11/15 03:34:45;;;;;;;0.00;0.00;;;9.40;99.90;;;;;;4967863;28;20295;-57
2023/11/15 03:37:12;;;;;;;0.73;0.10;;;9.20;99.90;;;;;;4972327;28;20207;-57
2023/11/15 03:39:39;;;;;;;0.00;0.00;;;9.20;99.90;;;;;;4973613;28;20593;-57
2023/11/15 03:42:06;;;;;;;1.23;0.10;;;9.10;99.90;;;;;;4972793;28;20201;-57
2023/11/15 03:44:33;;;;;;;0.63;0.10;;;9.10;99.90;;;;;;4968474;28;20207;-58
2023/11/15 03:47:00;;;;;;;0.10;0.00;;;9.00;99.90;;;;;;4974216;28;20275;-57
2023/11/15 03:49:27;;;;;;;0.60;0.10;;;9.00;99.90;;;;;;4972030;28;20253;-57
2023/11/15 03:51:55;;;;;;;0.20;0.07;;;9.00;99.90;;;;;;4957560;28;20289;-57
2023/11/15 03:54:22;;;;;;;0.30;0.30;;;9.00;99.90;;;;;;4953968;29;20306;-57
2023/11/15 03:56:50;;;;;;;0.00;0.00;;;9.00;99.90;;;;;;4960752;28;20224;-57
2023/11/15 03:59:17;;;;;;;0.53;0.10;;;9.10;99.90;;;;;;4970486;28;20210;-57
2023/11/15 04:01:43;;;;;;;1.07;0.63;;;9.20;99.90;;;;;;4973613;28;20202;-57
2023/11/15 04:04:10;;;;;;;0.83;0.10;;;9.40;99.90;;;;;;4972834;28;20666;-57
2023/11/15 04:06:38;;;;;;;1.17;0.10;;;9.30;99.90;;;;;;4972798;28;20226;-57
2023/11/15 04:09:06;;;;;;;1.30;0.10;;;9.50;99.90;;;;;;4973230;28;20203;-57
2023/11/15 04:11:37;;;;;;;1.20;0.37;;;10.70;99.90;;;;;;4972258;28;20305;-57
2023/11/15 04:14:04;;;;;;;0.63;0.03;;;9.60;99.90;;;;;;4970133;28;20257;-57
2023/11/15 04:16:32;;;;;;;2.93;0.10;;;8.90;99.90;;;;;;4959917;28;20623;-57
2023/11/15 04:18:59;;;;;;;0.17;0.10;;;9.60;99.90;;;;;;4971568;28;20240;-57
2023/11/15 04:21:26;;;;;;;1.03;0.10;;;9.50;99.90;;;;;;4960852;28;20287;-58
2023/11/15 04:23:53;;;;;;;0.47;0.47;;;9.40;99.90;;;;;;4952667;29;20262;-58
2023/11/15 04:26:22;;;;;;;0.03;0.03;;;9.40;99.90;;;;;;4965609;28;20310;-57
2023/11/15 04:28:49;;;;;;;0.30;0.23;;;9.60;99.90;;;;;;4972913;28;20249;-57
2023/11/15 04:31:16;;;;;;;0.10;0.00;;;9.70;99.90;;;;;;4971712;28;20322;-57
2023/11/15 04:33:43;;;;;;;0.00;0.00;;;9.70;99.90;;;;;;4969985;28;20227;-57
2023/11/15 04:36:11;;;;;;;1.07;0.20;;;9.60;99.90;;;;;;4965052;28;20234;-57
2023/11/15 04:38:38;;;;;;;1.70;0.10;;;9.50;99.90;;;;;;4970461;28;20290;-58
2023/11/15 04:41:06;;;;;;;1.63;0.10;;;8.80;99.90;;;;;;4967047;28;20207;-57
2023/11/15 04:43:35;;;;;;;2.93;0.10;;;9.40;99.90;;;;;;4973437;28;20213;-57
2023/11/15 04:46:03;;;;;;;0.43;0.30;;;10.40;99.90;;;;;;4971050;28;20289;-57
2023/11/15 04:48:30;;;;;;;1.83;0.60;;;9.60;99.90;;;;;;4971313;28;20302;-57
2023/11/15 04:50:57;;;;;;;0.47;0.00;;;9.60;99.90;;;;;;4972526;28;20647;-57
2023/11/15 04:53:25;;;;;;;0.00;0.00;;;8.40;99.90;;;;;;4972392;28;20249;-57
2023/11/15 04:55:52;;;;;;;1.40;0.20;;;9.40;99.90;;;;;;4980256;28;20317;-57
2023/11/15 04:58:18;;;;;;;0.63;0.10;;;9.30;99.90;;;;;;4969915;28;20282;-57
2023/11/15 05:00:46;;;;;;;2.00;0.00;;;9.40;99.90;;;;;;4971510;28;20691;-58
2023/11/15 05:03:13;;;;;;;1.70;0.10;;;9.50;99.90;;;;;;4968934;28;20207;-57
2023/11/15 05:05:42;;;;;;;0.00;0.00;;;9.10;99.90;;;;;;4970653;28;20282;-57
2023/11/15 05:08:10;;;;;;;1.10;0.10;;;9.60;99.90;;;;;;4970371;28;20249;-57
2023/11/15 05:10:37;;;;;;;0.27;0.00;;;9.20;99.90;;;;;;4968601;28;20313;-57
2023/11/15 05:13:05;;;;;;;0.67;0.10;;;9.50;99.90;;;;;;4967881;28;20205;-57
2023/11/15 05:15:32;;;;;;;0.10;0.10;;;9.50;99.90;;;;;;4971078;28;20275;-57
2023/11/15 05:18:00;;;;;;;1.50;0.17;;;9.50;99.90;;;;;;4972246;28;20268;-57
2023/11/15 05:20:28;;;;;;;0.20;0.20;;;9.60;99.90;;;;;;4971913;28;20277;-57
2023/11/15 05:22:55;;;;;;;1.53;0.13;;;9.30;99.90;;;;;;4967168;28;20215;-57
2023/11/15 05:25:22;;;;;;;1.23;0.70;;;;;;;;;;4966103;28;20261;-57
2023/11/15 05:27:50;;;;;;;0.43;0.10;;;;;;;;;;4965370;28;20573;-57
2023/11/15 05:30:17;;;;;;;1.33;0.23;;;;;;;;;;4973408;28;20788;-57
2023/11/15 05:32:45;;;;;;;0.50;0.13;;;;;;;;;;4973629;28;20212;-57
2023/11/15 05:35:14;;;;;;;0.10;0.10;;;;;;;;;;4974029;28;20224;-57
2023/11/15 05:37:41;;;;;;;1.17;0.10;;;8.80;99.90;;;;;;4974210;28;20206;-57
2023/11/15 05:40:12;;;;;;;0.30;0.00;;;;;;;;;;4975446;28;20207;-57
2023/11/15 05:42:40;;;;;;;2.40;0.40;;;7.70;99.90;;;;;;4981980;28;20205;-57
2023/11/15 05:45:10;;;;;;;0.27;0.20;;;;;;;;;;4973774;28;20258;-57
2023/11/15 05:47:38;;;;;;;1.13;0.40;;;9.20;99.90;;;;;;4975396;28;20207;-58
2023/11/15 05:50:07;;;;;;;1.13;0.93;;;;;;;;;;4973505;28;20555;-58
2023/11/15 05:52:37;;;;;;;1.70;0.70;;;;;;;;;;4974873;28;20226;-57
2023/11/15 05:55:06;;;;;;;1.40;0.40;;;;;;;;;;4974657;28;20227;-57
2023/11/15 05:57:33;;;;;;;0.60;0.40;;;;;;;;;;4975335;28;20211;-57
2023/11/15 06:00:03;;;;;;;0.60;0.60;;;8.80;99.90;;;;;;4974014;28;20211;-57
2023/11/15 06:02:31;;;;;;;2.73;1.10;;;;;;;;;;4970576;28;20283;-57
2023/11/15 06:04:59;;;;;;;1.63;0.30;;;8.50;99.90;;;;;;4973767;28;20226;-57
2023/11/15 06:07:26;;;;;;;0.53;0.30;;;9.00;99.90;;;;;;4973948;28;20211;-57
2023/11/15 06:09:55;;;;;;;4.10;1.63;;;;;;;;;;4974802;28;20573;-57
2023/11/15 06:12:23;;;;;;;1.07;0.70;;;;;;;;;;4974594;28;20273;-57
2023/11/15 06:14:50;;;;;;;2.13;1.47;;;9.10;99.90;;;;;;4972809;28;20294;-57
2023/11/15 06:17:17;;;;;;;3.10;0.70;;;9.10;99.90;;;;;;4974242;28;20207;-58
2023/11/15 06:19:44;;;;;;;4.70;1.63;;;;;;;;;;4974790;28;20529;-58
2023/11/15 06:22:12;;;;;;;4.80;0.80;;;9.10;99.90;;;;;;4969902;28;20198;-58
2023/11/15 06:24:42;;;;;;;1.03;0.93;;;9.20;99.90;;;;;;4973476;28;20234;-58
2023/11/15 06:27:10;;;;;;;1.23;0.37;;;8.10;99.90;;;;;;4972662;28;20211;-58
2023/11/15 06:29:38;;;;;;;1.53;0.40;;;;;;;;;;4974244;28;20672;-58
2023/11/15 06:32:05;;;;;;;0.30;0.30;;;;;;;;;;4972933;28;20285;-58
2023/11/15 06:34:33;;;;;;;0.87;0.80;;;;;;;;;;4974402;28;20285;-58
2023/11/15 06:37:00;;;;;;;3.13;0.83;;;9.00;99.90;;;;;;4972877;28;20272;-58
2023/11/15 06:39:27;;;;;;;3.42;0.90;;;8.70;99.90;;;;;;4971829;28;20994;-60
2023/11/15 06:41:54;;;;;;;2.10;0.73;;;;;;;;;;4972373;28;20611;-64
2023/11/15 06:44:23;;;;;;;1.00;1.00;;;;;;;;;;4973558;28;20225;-64
2023/11/15 06:46:52;;;;;;;1.10;0.70;;;8.20;99.90;;;;;;4973469;28;20229;-64
2023/11/15 06:49:19;;;;;;;1.43;0.63;;;9.00;99.90;;;;;;4974136;28;20615;-64
2023/11/15 06:51:49;;;;;;;0.30;0.30;;;;;;;;;;4974148;28;20777;-62
2023/11/15 06:54:17;;;;;;;1.33;0.40;;;9.00;99.90;;;;;;4975147;28;20211;-62
2023/11/15 06:56:48;;;;;;;3.33;0.70;;;9.00;99.90;;;;;;4973582;28;20702;-63
2023/11/15 06:59:15;;;;;;;1.03;0.57;;;9.00;99.90;;;;;;4974058;28;20293;-63
2023/11/15 07:01:43;;;;;;;3.07;0.70;;;9.00;99.90;;;;;;4974068;28;20265;-63
2023/11/15 07:04:12;;;;;;;3.20;1.20;;;9.00;99.90;;;;;;4971504;28;20207;-61
2023/11/15 07:06:39;;;;;;;3.73;2.60;;;9.00;99.90;;;;;;4973253;28;20687;-60
2023/11/15 07:09:08;;;;;;;4.13;2.53;;;9.00;99.90;;;;;;4972769;28;20204;-61
2023/11/15 07:11:36;;;;;;;3.70;2.53;;;9.00;99.90;;;;;;4973777;28;20222;-61
2023/11/15 07:14:03;;;;;;;3.70;2.57;;;9.00;99.90;;;;;;4974117;28;20261;-60
2023/11/15 07:16:34;;;;;;;2.93;1.27;;;9.10;99.90;;;;;;4973613;28;20322;-60
2023/11/15 07:19:02;;;;;;;2.53;1.50;;;9.10;99.90;;;;;;4973830;28;20211;-60
2023/11/15 07:21:33;;;;;;;4.20;1.73;;;9.10;99.90;;;;;;4973839;28;20199;-65
2023/11/15 07:23:59;;;;;;;0.60;0.60;;;9.10;99.90;;;;;;4973660;28;20214;-63
2023/11/15 07:26:27;;;;;;;0.53;0.50;;;9.10;99.90;;;;;;4969993;28;20255;-63
2023/11/15 07:28:56;;;;;;;2.03;0.80;;;9.00;99.90;;;;;;4972449;28;20214;-64
2023/11/15 07:31:23;;;;;;;3.83;1.27;;;9.20;99.90;;;;;;4973346;28;20269;-61
2023/11/15 07:33:51;;;;;;;1.80;0.30;;;9.20;99.90;;;;;;4973584;28;20207;-62
2023/11/15 07:36:20;;;;;;;1.20;0.20;;;9.30;99.90;;;;;;4972692;28;20246;-61
2023/11/15 07:38:48;;;;;;;0.33;0.27;;;9.40;99.90;;;;;;4973697;28;20280;-61
2023/11/15 07:41:15;;;;;;;1.50;0.20;;;9.60;99.90;;;;;;4971371;28;20207;-62
2023/11/15 07:43:42;;;;;;;2.07;0.20;;;9.70;99.90;;;;;;4972403;28;20207;-61
2023/11/15 07:46:09;;;;;;;1.27;1.17;;;9.90;99.90;;;;;;4972188;28;20321;-62
2023/11/15 07:48:36;;;;;;;0.57;0.30;;;10.00;99.90;;;;;;4972958;28;20290;-63
2023/11/15 07:51:04;;;;;;;0.40;0.40;;;10.00;99.90;;;;;;4971801;28;20295;-62
2023/11/15 07:53:32;;;;;;;5.13;0.60;;;10.10;99.90;;;;;;4969719;28;20201;-63
2023/11/15 07:55:59;;;;;;;2.63;0.53;;;10.10;99.90;;;;;;4969573;28;20227;-62
2023/11/15 07:58:27;;;;;;;0.60;0.60;;;10.00;99.90;;;;;;4967094;28;20211;-63
2023/11/15 08:00:54;;;;;;;1.83;0.97;;;10.00;99.90;;;;;;4973353;28;20734;-63
2023/11/15 08:03:21;;;;;;;1.10;1.10;;;10.20;99.90;;;;;;4972939;28;20211;-60
2023/11/15 08:05:49;;;;;;;2.83;1.20;;;10.20;99.90;;;;;;4972569;28;20231;-61
2023/11/15 08:08:16;;;;;;;1.73;1.10;;;;;;;;;;4972767;28;20589;-61
2023/11/15 08:10:48;;;;;;;3.57;1.63;;;10.10;99.90;;;;;;4972753;28;20201;-62
2023/11/15 08:13:19;;;;;;;2.43;1.20;;;9.90;99.90;;;;;;4972777;28;20234;-62
2023/11/15 08:15:46;;;;;;;2.00;1.30;;;9.90;99.90;;;;;;4973173;28;20236;-63
2023/11/15 08:18:14;;;;;;;1.87;1.37;;;9.90;99.90;;;;;;4972079;28;20208;-62
2023/11/15 08:20:43;;;;;;;2.77;1.40;;;9.90;99.90;;;;;;4972636;28;20238;-63
2023/11/15 08:23:11;;;;;;;2.37;1.60;;;9.80;99.90;;;;;;4972593;28;20210;-63
2023/11/15 08:25:40;;;;;;;22.97;17.83;;;9.80;99.90;;;;;;4972238;28;20366;-63
2023/11/15 08:28:09;;;;;;;18.43;11.27;;;;;;;;;;4971649;28;20217;-65
2023/11/15 08:30:36;;;;;;;12.80;7.07;;;9.80;99.90;;;;;;4972299;28;20297;-63
2023/11/15 08:33:05;;;;;;;6.40;4.60;;;9.90;99.90;;;;;;4970115;28;20231;-62
2023/11/15 08:35:32;;;;;;;9.70;3.90;;;9.90;99.90;;;;;;4971754;28;20236;-61
2023/11/15 08:38:00;;;;;;;4.47;3.17;;;;;;;;;;4972244;28;20218;-62
2023/11/15 08:40:27;;;;;;;6.40;2.07;;;9.60;99.90;;;;;;4964037;28;20266;-61
2023/11/15 08:42:55;;;;;;;3.63;2.67;;;9.80;99.90;;;;;;4972051;28;20208;-61
2023/11/15 08:45:23;;;;;;;5.23;2.20;;;9.80;99.90;;;;;;4971302;28;20317;-63
2023/11/15 08:47:50;;;;;;;5.47;2.20;;;;;;;;;;4971193;28;20303;-62
2023/11/15 08:50:18;;;;;;;2.07;1.93;;;;;;;;;;4971568;28;20559;-62
2023/11/15 08:52:46;;;;;;;6.80;2.30;;;9.40;99.90;;;;;;4971638;28;20677;-59
2023/11/15 08:55:13;;;;;;;3.30;1.30;;;9.90;99.90;;;;;;4971475;28;20318;-62
2023/11/15 08:57:40;;;;;;;4.13;1.13;;;;;;;;;;4971597;28;20210;-61
2023/11/15 09:00:12;;;;;;;5.63;1.07;;;;;;;;;;5000208;23;20230;-65
2023/11/15 09:02:42;;;;;;;4.07;0.97;;;9.70;99.90;;;;;;4977313;28;20227;-64
2023/11/15 09:05:10;;;;;;;1.30;1.00;;;9.60;99.90;;;;;;4980755;28;20309;-63
2023/11/15 09:07:38;;;;;;;2.00;1.10;;;9.80;99.90;;;;;;4987100;28;20202;-64
2023/11/15 09:10:08;;;;;;;4.73;1.17;;;9.80;99.90;;;;;;4979230;28;20252;-65
2023/11/15 09:12:36;;;;;;;2.23;2.03;;;9.90;99.90;;;;;;4979073;28;20234;-65
2023/11/15 09:15:11;;;;;;;1.13;0.90;;;10.10;99.90;;;;;;4956946;28;20223;-61
2023/11/15 09:17:45;;;;;;;1.13;0.63;;;10.40;99.90;;;;;;4953525;28;20204;-64
2023/11/15 09:20:17;;;;;;;0.67;0.67;;;10.30;99.90;;;;;;4967405;28;20706;-61
2023/11/15 09:22:48;;;;;;;0.60;0.10;;;10.90;99.90;;;;;;4955321;28;20283;-61
2023/11/15 09:25:21;;;;;;;0.93;0.20;;;10.70;99.90;;;;;;4957235;28;20270;-64
2023/11/15 09:27:49;;;;;;;1.73;0.40;;;11.40;99.90;;;;;;4951930;28;20206;-64
2023/11/15 09:30:18;;;;;;;0.43;0.20;;;11.90;99.90;;;;;;4956531;28;20220;-63
2023/11/15 09:32:49;;;;;;;0.50;0.33;;;12.40;99.90;;;;;;4963210;28;20278;-62
2023/11/15 09:35:16;;;;;;;1.67;0.40;;;13.60;99.90;;;;;;4957569;28;20204;-64
2023/11/15 09:37:45;;;;;;;1.17;0.30;;;;;;;;;;4958407;28;20266;-64
2023/11/15 09:40:12;;;;;;;1.23;0.20;;;13.30;99.90;;;;;;4959289;28;20227;-59
2023/11/15 09:42:45;;;;;;;1.80;0.10;;;13.00;99.90;;;;;;4959508;28;20263;-63
2023/11/15 09:45:16;;;;;;;0.33;0.30;;;12.80;99.90;;;;;;4955998;28;20208;-65
2023/11/15 09:47:44;;;;;;;0.70;0.20;;;;;;;;;;4954795;28;20693;-64
2023/11/15 09:50:15;;;;;;;2.40;0.40;;;12.40;99.90;;;;;;4956134;28;20247;-65
2023/11/15 09:52:42;;;;;;;1.43;0.20;;;12.10;99.90;;;;;;4954297;28;20239;-65
2023/11/15 09:55:10;;;;;;;1.40;0.60;;;12.30;99.90;;;;;;4957984;28;20223;-65
2023/11/15 09:57:37;;;;;;;1.07;0.70;;;12.50;99.90;;;;;;4959188;28;20208;-65
2023/11/15 10:00:08;;;;;;;2.40;0.60;;;;;;;;;;4958915;28;20235;-65
2023/11/15 10:02:37;;;;;;;2.13;1.33;;;12.10;99.90;;;;;;4959317;28;20284;-65
2023/11/15 10:05:18;;;;;;;0.90;0.37;;;13.10;99.90;;;;;;4952868;28;20260;-64
2023/11/15 10:07:47;;;;;;;0.70;0.20;;;;;;;;;;4959188;28;20291;-64
2023/11/15 10:10:19;;;;;;;0.63;0.33;;;13.20;99.90;;;;;;4959106;28;20256;-65
2023/11/15 10:12:46;;;;;;;0.67;0.20;;;;;;;;;;4958038;28;20651;-65
2023/11/15 10:15:14;;;;;;;1.03;0.30;;;13.10;99.90;;;;;;4955674;28;20204;-65
2023/11/15 10:17:42;;;;;;;0.33;0.13;;;13.10;99.90;;;;;;4956283;28;20308;-65
2023/11/15 10:20:25;;;;;;;2.57;0.70;;;13.10;99.90;;;;;;4956121;28;20288;-65
2023/11/15 10:22:55;;;;;;;1.23;0.30;;;13.30;99.90;;;;;;4955937;28;20608;-65
2023/11/15 10:25:25;;;;;;;1.60;0.50;;;13.40;99.90;;;;;;4954018;28;20208;-65
2023/11/15 10:27:52;;;;;;;2.57;0.43;;;13.40;99.90;;;;;;4965188;28;20300;-65
2023/11/15 10:30:22;;;;;;;0.97;0.30;;;13.30;99.90;;;;;;4975414;28;20282;-65
2023/11/15 10:32:51;;;;;;;0.93;0.30;;;13.10;99.90;;;;;;4974585;28;20224;-65
2023/11/15 10:35:28;;;;;;;0.50;0.30;;;12.10;99.90;;;;;;4969533;28;20205;-65
2023/11/15 10:37:55;;;;;;;2.97;0.70;;;14.50;99.90;;;;;;4974227;28;20196;-66
2023/11/15 10:40:25;;;;;;;0.50;0.50;;;;;;;;;;4975105;28;20260;-65
2023/11/15 10:42:53;;;;;;;0.53;0.20;;;14.00;99.90;;;;;;4968500;28;20200;-65
2023/11/15 10:45:24;;;;;;;0.90;0.20;;;13.40;99.90;;;;;;4966840;28;20276;-66
2023/11/15 10:47:57;;;;;;;0.77;0.30;;;14.20;99.90;;;;;;4974888;28;20207;-65
2023/11/15 10:50:30;;;;;;;0.30;0.30;;;14.20;99.90;;;;;;4960013;28;20656;-66
2023/11/15 10:52:59;;;;;;;1.90;0.20;;;;;;;;;;4955525;29;20227;-64
2023/11/15 10:55:28;;;;;;;0.60;0.20;;;15.10;99.90;;;;;;4953391;28;20220;-68
2023/11/15 10:58:02;;;;;;;0.53;0.20;;;15.30;99.90;;;;;;4950797;28;20642;-66
2023/11/15 11:00:30;;;;;;;0.63;0.13;;;14.90;99.90;;;;;;4963057;28;20201;-66
2023/11/15 11:02:58;;;;;;;2.50;0.30;;;14.70;99.90;;;;;;4957121;28;20198;-66
2023/11/15 11:05:45;;;;;;;0.83;0.50;;;14.10;99.90;;;;;;4957064;28;20209;-66
2023/11/15 11:08:26;;;;;;;0.60;0.30;;;13.50;99.90;;;;;;4971793;28;20204;-67
2023/11/15 11:11:05;;;;;;;2.83;0.50;;;13.40;99.90;;;;;;4970236;28;20219;-67
2023/11/15 11:13:33;;;;;;;0.83;0.20;;;;;;;;;;4951788;28;20227;-68
2023/11/15 11:16:30;;;;;;;0.83;0.30;;;;;;;;;;4949017;28;20208;-68
2023/11/15 11:19:11;;;;;;;0.40;0.40;;;;;;;;;;4953864;28;20224;-66
2023/11/15 11:22:12;;;;;;;0.13;0.13;;;12.40;99.90;;;;;;4964816;28;20229;-69
2023/11/15 11:24:42;;;;;;;1.57;0.87;;;12.80;99.90;;;;;;4962332;28;20207;-64
2023/11/15 11:27:33;;;;;;;0.67;0.30;;;12.60;99.90;;;;;;4952999;28;20204;-64
2023/11/15 11:30:20;;;;;;;1.43;0.27;;;13.30;99.90;;;;;;4942935;28;20621;-66
2023/11/15 11:32:49;;;;;;;2.40;0.20;;;;;;;;;;4949639;28;20719;-68
2023/11/15 11:35:30;;;;;;;1.70;0.70;;;;;;;;;;4948751;28;20294;-67
2023/11/15 11:38:00;;;;;;;4.53;0.83;;;12.40;99.90;;;;;;4954790;28;20290;-67
2023/11/15 11:40:32;;;;;;;2.27;0.20;;;12.30;99.90;;;;;;4954341;28;20211;-68
2023/11/15 11:43:21;;;;;;;0.10;0.10;;;12.20;99.90;;;;;;4954587;28;20709;-68
2023/11/15 11:45:52;;;;;;;0.53;0.10;;;12.20;99.90;;;;;;4951041;28;20767;-68
2023/11/15 11:48:23;;;;;;;1.27;0.20;;;12.10;99.90;;;;;;4952896;28;20232;-68
2023/11/15 11:51:03;;;;;;;1.50;0.10;;;12.10;99.90;;;;;;4949127;28;20628;-68
2023/11/15 11:53:37;;;;;;;3.03;0.20;;;12.20;99.90;;;;;;4959134;28;20225;-68
2023/11/15 11:56:07;;;;;;;1.03;0.20;;;12.30;99.90;;;;;;4954125;28;20204;-67
2023/11/15 11:58:36;;;;;;;0.80;0.50;;;12.40;99.90;;;;;;4950886;28;20237;-65
2023/11/15 12:01:05;;;;;;;0.90;0.20;;;12.70;99.90;;;;;;4950675;28;20300;-65
2023/11/15 12:03:33;;;;;;;1.30;0.30;;;12.90;99.90;;;;;;4953525;28;20625;-65
2023/11/15 12:06:11;;;;;;;0.30;0.10;;;13.30;99.90;;;;;;4953539;28;20204;-64
2023/11/15 12:08:40;;;;;;;1.30;0.10;;;13.40;99.90;;;;;;4954022;28;20641;-64
2023/11/15 12:11:10;;;;;;;1.23;0.17;;;13.40;99.90;;;;;;4959806;28;20200;-64
2023/11/15 12:13:47;;;;;;;0.43;0.23;;;13.30;99.90;;;;;;4953846;28;20228;-63
2023/11/15 12:16:18;;;;;;;3.20;0.83;;;13.30;99.90;;;;;;4953418;28;20205;-64
2023/11/15 12:19:03;;;;;;;0.37;0.37;;;13.10;99.90;;;;;;4961371;28;20718;-65
2023/11/15 12:21:33;;;;;;;1.10;0.10;;;13.00;99.90;;;;;;4953544;28;20677;-66
2023/11/15 12:24:04;;;;;;;1.43;0.30;;;12.60;99.90;;;;;;4949770;28;20204;-66
2023/11/15 12:26:42;;;;;;;0.30;0.20;;;12.40;99.90;;;;;;4956941;28;20201;-62
2023/11/15 12:29:23;;;;;;;1.07;0.20;;;12.10;99.90;;;;;;4947349;28;20275;-62
2023/11/15 12:31:52;;;;;;;2.50;0.30;;;11.80;99.90;;;;;;4949026;28;20200;-63
2023/11/15 12:34:19;;;;;;;1.07;0.10;;;11.70;99.90;;;;;;4960330;28;20636;-64
2023/11/15 12:36:48;;;;;;;0.20;0.10;;;11.70;99.90;;;;;;4949394;28;20197;-62
2023/11/15 12:39:17;;;;;;;0.10;0.10;;;11.60;99.90;;;;;;4951163;28;20231;-63
2023/11/15 12:41:48;;;;;;;1.13;0.30;;;11.60;99.90;;;;;;4952831;28;20699;-62
2023/11/15 12:44:15;;;;;;;0.50;0.10;;;11.50;99.90;;;;;;4953234;28;20207;-62
2023/11/15 12:46:43;;;;;;;0.10;0.10;;;11.50;99.90;;;;;;4953126;28;20208;-62
2023/11/15 12:49:14;;;;;;;0.20;0.20;;;11.50;99.90;;;;;;4946409;28;20671;-63
2023/11/15 12:51:48;;;;;;;1.17;0.20;;;11.60;99.90;;;;;;4960039;28;20208;-65
2023/11/15 12:54:16;;;;;;;1.20;0.20;;;11.60;99.90;;;;;;4960919;28;20760;-63
2023/11/15 12:56:43;;;;;;;0.20;0.20;;;11.70;99.90;;;;;;4953019;28;20275;-65
2023/11/15 12:59:14;;;;;;;1.23;0.30;;;11.80;99.90;;;;;;4951528;28;20231;-64
2023/11/15 13:01:45;;;;;;;0.27;0.20;;;11.80;99.90;;;;;;4953438;28;20207;-65
2023/11/15 13:04:14;;;;;;;0.33;0.20;;;11.80;99.90;;;;;;4952881;28;20765;-66
2023/11/15 13:06:41;;;;;;;0.40;0.30;;;11.90;99.90;;;;;;4953064;28;20201;-66
2023/11/15 13:09:14;;;;;;;1.07;0.30;;;12.20;99.90;;;;;;4951581;28;20217;-63
2023/11/15 13:11:43;;;;;;;0.43;0.30;;;12.30;99.90;;;;;;4945716;28;20688;-65
2023/11/15 13:14:13;;;;;;;0.30;0.20;;;12.30;99.90;;;;;;4950371;28;20232;-66